Time;durP1;ratioP1;P1;durP2;ratioP2;P2;SDS_P1;SDS_P2;PMS_P1;PMS_P2;Temp;Humidity;BMP_temperature;BMP_pressure;BME280_temperature;BME280_humidity;BME280_pressure;Samples;Min_cycle;Max_cycle;Signal;HPM_P1;HPM_P2
2021/08/17 00:02:21;;;;;;;149.75;30.58;;;;;;;10.77;100.00;101934.06;5227826;28;20264;-81
2021/08/17 00:04:52;;;;;;;147.05;29.35;;;;;;;10.92;100.00;101935.34;5228012;28;20051;-82
2021/08/17 00:07:26;;;;;;;159.32;31.00;;;;;;;11.03;100.00;101928.97;5227807;28;20060;-81
2021/08/17 00:09:56;;;;;;;151.43;30.13;;;;;;;11.11;100.00;101932.66;5228518;28;20090;-82
2021/08/17 00:12:27;;;;;;;149.38;31.17;;;;;;;11.19;100.00;101931.91;5228272;28;20033;-80
2021/08/17 00:14:57;;;;;;;144.15;31.08;;;;;;;11.24;100.00;101929.63;5227681;28;20577;-82
2021/08/17 00:17:28;;;;;;;137.68;30.88;;;;;;;11.29;100.00;101931.91;5228278;28;20162;-82
2021/08/17 00:19:58;;;;;;;126.03;29.90;;;;;;;11.35;100.00;101937.56;5227697;28;20021;-82
2021/08/17 00:22:28;;;;;;;150.73;30.67;;;;;;;11.43;100.00;101930.59;5227944;28;20035;-80
2021/08/17 00:24:59;;;;;;;134.25;30.75;;;;;;;11.47;100.00;101923.94;5228456;28;20031;-80
2021/08/17 00:27:29;;;;;;;125.18;28.95;;;;;;;11.55;100.00;101922.22;5227774;28;20076;-81
2021/08/17 00:30:00;;;;;;;122.65;28.58;;;;;;;11.62;100.00;101927.84;5213997;28;20483;-82
2021/08/17 00:32:31;;;;;;;117.65;28.65;;;;;;;11.68;100.00;101928.09;5227834;28;20093;-81
2021/08/17 00:35:02;;;;;;;128.57;29.13;;;;;;;11.69;100.00;101923.56;5227268;28;20135;-81
2021/08/17 00:37:33;;;;;;;127.78;29.25;;;;;;;11.73;100.00;101926.81;5227625;28;20032;-82
2021/08/17 00:40:04;;;;;;;119.93;26.48;;;;;;;11.76;100.00;101922.00;5227369;28;20033;-81
2021/08/17 00:42:46;;;;;;;118.82;25.27;;;;;;;11.82;100.00;101928.66;5210206;28;20021;-82
2021/08/17 00:45:21;;;;;;;120.47;26.90;;;;;;;11.88;100.00;101926.22;5214317;28;20075;-82
2021/08/17 00:47:53;;;;;;;115.20;27.30;;;;;;;11.85;100.00;101926.53;5209547;28;20620;-82
2021/08/17 00:50:26;;;;;;;111.43;25.50;;;;;;;11.84;100.00;101930.19;5226843;28;20605;-83
2021/08/17 00:52:57;;;;;;;111.20;26.55;;;;;;;11.79;100.00;101926.22;5227679;28;20025;-82
2021/08/17 00:55:28;;;;;;;103.75;24.80;;;;;;;11.70;100.00;101925.28;5227371;28;20036;-82
2021/08/17 00:57:59;;;;;;;115.63;25.60;;;;;;;11.61;100.00;101913.56;5224034;28;20108;-82
2021/08/17 01:00:30;;;;;;;105.35;26.00;;;;;;;11.58;100.00;101911.16;5191822;28;20105;-82
2021/08/17 01:03:00;;;;;;;105.15;26.38;;;;;;;11.58;100.00;101908.47;5202679;28;20104;-82
2021/08/17 01:05:31;;;;;;;101.05;24.70;;;;;;;11.57;100.00;101903.25;5224311;28;20054;-82
2021/08/17 01:08:06;;;;;;;105.13;25.90;;;;;;;11.64;100.00;101899.81;5212698;28;20040;-82
2021/08/17 01:10:45;;;;;;;107.55;24.75;;;;;;;11.68;100.00;101906.59;5225318;28;20029;-81
2021/08/17 01:13:15;;;;;;;107.45;25.33;;;;;;;11.70;100.00;101905.59;5224869;28;20031;-81
2021/08/17 01:15:46;;;;;;;100.78;24.88;;;;;;;11.74;100.00;101898.94;5207495;28;20021;-81
2021/08/17 01:18:17;;;;;;;98.97;24.83;;;;;;;11.75;100.00;101895.28;5207863;28;20025;-82
2021/08/17 01:21:08;;;;;;;101.20;24.25;;;;;;;11.85;100.00;101899.66;5225109;28;20104;-81
2021/08/17 01:23:39;;;;;;;102.57;24.20;;;;;;;11.86;100.00;101898.66;5225334;28;20025;-81
2021/08/17 01:26:09;;;;;;;103.20;24.50;;;;;;;11.94;100.00;101897.88;5225000;28;20036;-82
2021/08/17 01:28:40;;;;;;;101.32;24.73;;;;;;;11.93;100.00;101897.03;5225558;28;20025;-82
2021/08/17 01:31:10;;;;;;;102.72;25.83;;;;;;;11.96;100.00;101903.13;5225644;28;20024;-80
2021/08/17 01:33:41;;;;;;;97.55;25.48;;;;;;;12.00;100.00;101901.81;5225182;28;20170;-82
2021/08/17 01:36:11;;;;;;;109.53;25.40;;;;;;;12.00;100.00;101902.69;5207351;28;20048;-82
2021/08/17 01:38:47;;;;;;;90.88;23.20;;;;;;;12.00;100.00;101900.00;5225183;28;20295;-81
2021/08/17 01:41:18;;;;;;;90.53;22.70;;;;;;;12.06;100.00;101904.78;5224851;28;20036;-82
2021/08/17 01:43:50;;;;;;;93.88;24.40;;;;;;;12.04;100.00;101893.28;5225115;28;20024;-81
2021/08/17 01:46:21;;;;;;;96.65;23.65;;;;;;;12.03;100.00;101882.69;5224983;28;20486;-82
2021/08/17 01:48:51;;;;;;;94.95;23.20;;;;;;;11.95;100.00;101887.97;5225104;28;20087;-82
2021/08/17 01:51:22;;;;;;;91.68;23.63;;;;;;;11.85;100.00;101893.44;5225201;28;20086;-82
2021/08/17 01:53:53;;;;;;;101.95;22.52;;;;;;;11.76;100.00;101891.59;5225104;28;20125;-81
2021/08/17 01:56:23;;;;;;;97.88;22.95;;;;;;;11.63;100.00;101892.75;5224798;28;20512;-82
2021/08/17 01:59:09;;;;;;;86.32;23.25;;;;;;;11.55;100.00;101889.13;5224250;28;20041;-82
2021/08/17 02:01:41;;;;;;;94.50;22.27;;;;;;;11.50;100.00;101894.09;5224773;28;20024;-82
2021/08/17 02:04:12;;;;;;;109.70;25.73;;;;;;;11.44;100.00;101884.75;5224728;28;20090;-82
2021/08/17 02:06:43;;;;;;;100.00;25.80;;;;;;;11.51;100.00;101891.25;5239990;28;20029;-79
2021/08/17 02:09:13;;;;;;;92.13;23.48;;;;;;;11.50;100.00;101889.56;5250802;28;20040;-79
2021/08/17 02:11:44;;;;;;;104.20;23.17;;;;;;;11.53;100.00;101894.63;5241350;28;20100;-79
2021/08/17 02:14:15;;;;;;;99.03;25.05;;;;;;;11.65;100.00;101903.38;5223107;28;20367;-82
2021/08/17 02:16:45;;;;;;;102.75;24.13;;;;;;;11.63;100.00;101900.81;5216218;28;20531;-80
2021/08/17 02:19:16;;;;;;;107.63;25.08;;;;;;;11.60;100.00;101890.38;5225005;28;20363;-82
2021/08/17 02:21:47;;;;;;;105.60;25.13;;;;;;;11.61;100.00;101905.50;5206898;28;20089;-80
2021/08/17 02:24:17;;;;;;;107.38;24.73;;;;;;;11.57;100.00;101897.88;5224485;28;20120;-82
2021/08/17 02:26:48;;;;;;;94.95;25.17;;;;;;;11.61;100.00;101896.59;5228244;28;20488;-81
2021/08/17 02:29:18;;;;;;;108.93;26.75;;;;;;;11.59;100.00;101901.25;5219384;28;20025;-82
2021/08/17 02:31:49;;;;;;;100.55;23.85;;;;;;;11.59;100.00;101904.78;5224391;28;20075;-81
2021/08/17 02:34:19;;;;;;;100.18;24.50;;;;;;;11.55;100.00;101902.56;5230115;28;20083;-82
2021/08/17 02:36:50;;;;;;;100.47;24.85;;;;;;;11.49;100.00;101903.97;5211823;28;20017;-80
2021/08/17 02:39:20;;;;;;;98.95;26.73;;;;;;;11.47;100.00;101903.28;5200938;28;20027;-82
2021/08/17 02:41:51;;;;;;;97.15;23.67;;;;;;;11.40;100.00;101907.56;5228009;28;20425;-82
2021/08/17 02:44:21;;;;;;;107.05;25.70;;;;;;;11.40;100.00;101896.81;5217065;28;20029;-82
2021/08/17 02:46:52;;;;;;;112.65;26.73;;;;;;;11.38;100.00;101896.09;5228619;28;20378;-81
2021/08/17 02:49:23;;;;;;;104.28;25.30;;;;;;;11.33;100.00;101898.38;5211513;28;20029;-82
2021/08/17 02:51:53;;;;;;;119.57;27.23;;;;;;;11.32;100.00;101902.06;5222154;28;20052;-82
2021/08/17 02:54:23;;;;;;;114.78;25.67;;;;;;;11.26;100.00;101898.13;5224091;28;20028;-82
2021/08/17 02:56:54;;;;;;;121.85;26.45;;;;;;;11.33;100.00;101901.06;5229559;28;20110;-80
2021/08/17 02:59:24;;;;;;;104.32;24.98;;;;;;;11.30;100.00;101898.69;5228889;28;20029;-82
2021/08/17 03:01:55;;;;;;;120.90;26.25;;;;;;;11.33;100.00;101899.22;5228961;28;20109;-82
2021/08/17 03:04:26;;;;;;;107.05;24.85;;;;;;;11.38;100.00;101909.53;5222222;28;20455;-82
2021/08/17 03:06:56;;;;;;;122.82;27.60;;;;;;;11.34;100.00;101908.97;5215394;28;20032;-80
2021/08/17 03:09:27;;;;;;;105.22;24.95;;;;;;;11.34;100.00;101906.28;5210417;28;20029;-82
2021/08/17 03:11:58;;;;;;;112.68;26.13;;;;;;;11.33;100.00;101903.75;5223945;28;20252;-84
2021/08/17 03:14:29;;;;;;;103.68;24.45;;;;;;;11.27;100.00;101898.97;5223966;28;20029;-80
2021/08/17 03:16:59;;;;;;;109.47;25.73;;;;;;;11.20;100.00;101898.72;5224184;28;20111;-82
2021/08/17 03:19:30;;;;;;;93.20;25.48;;;;;;;11.14;100.00;101900.13;5224043;28;20490;-81
2021/08/17 03:22:00;;;;;;;107.55;25.10;;;;;;;11.06;100.00;101901.84;5224072;28;20063;-83
2021/08/17 03:24:31;;;;;;;107.63;26.35;;;;;;;10.98;100.00;101905.22;5223440;28;20025;-81
2021/08/17 03:27:01;;;;;;;120.43;27.05;;;;;;;10.94;100.00;101903.81;5223688;28;20505;-82
2021/08/17 03:29:32;;;;;;;118.68;26.45;;;;;;;10.88;100.00;101901.72;5223592;28;20127;-82
2021/08/17 03:32:02;;;;;;;118.65;25.85;;;;;;;10.81;100.00;101893.38;5210760;28;21027;-82
2021/08/17 03:34:33;;;;;;;119.85;26.08;;;;;;;10.79;100.00;101894.50;5223963;28;20040;-82
2021/08/17 03:37:03;;;;;;;112.40;26.98;;;;;;;10.73;100.00;101887.88;5223837;28;20021;-83
2021/08/17 03:39:34;;;;;;;127.40;27.42;;;;;;;10.62;100.00;101878.13;5223480;28;20028;-82
2021/08/17 03:42:04;;;;;;;111.82;25.73;;;;;;;10.58;100.00;101876.72;5217019;28;20074;-82
2021/08/17 03:44:35;;;;;;;129.85;27.02;;;;;;;10.54;100.00;101871.75;5223695;28;20456;-80
2021/08/17 03:47:06;;;;;;;135.45;28.63;;;;;;;10.55;100.00;101877.00;5223473;28;20025;-81
2021/08/17 03:49:36;;;;;;;123.80;27.27;;;;;;;10.57;100.00;101872.34;5205276;28;20028;-82
2021/08/17 03:52:07;;;;;;;119.78;28.63;;;;;;;10.57;100.00;101866.13;5223694;28;20470;-82
2021/08/17 03:54:37;;;;;;;125.65;26.23;;;;;;;10.55;100.00;101877.00;5223643;28;20028;-81
2021/08/17 03:57:08;;;;;;;117.55;26.90;;;;;;;10.57;100.00;101871.50;5223855;28;20036;-82
2021/08/17 03:59:38;;;;;;;124.43;26.90;;;;;;;10.53;100.00;101870.06;5192224;28;20029;-80
2021/08/17 04:02:09;;;;;;;111.10;27.20;;;;;;;10.53;100.00;101867.41;5223373;28;20040;-80
2021/08/17 04:04:39;;;;;;;140.43;31.77;;;;;;;10.51;100.00;101878.28;5223099;28;20048;-81
2021/08/17 04:07:10;;;;;;;139.43;29.90;;;;;;;10.55;100.00;101874.34;5223596;28;20024;-81
2021/08/17 04:09:40;;;;;;;134.57;29.33;;;;;;;10.53;100.00;101872.75;5209888;28;20044;-82
2021/08/17 04:12:10;;;;;;;127.80;29.83;;;;;;;10.58;100.00;101881.25;5223510;28;20029;-82
2021/08/17 04:14:41;;;;;;;151.57;30.10;;;;;;;10.62;100.00;101883.50;5223733;28;20126;-82
2021/08/17 04:17:11;;;;;;;129.15;27.45;;;;;;;10.63;100.00;101889.72;5223117;28;20021;-83
2021/08/17 04:19:43;;;;;;;134.40;30.00;;;;;;;10.65;100.00;101884.22;5205596;28;20025;-82
2021/08/17 04:22:14;;;;;;;139.82;27.83;;;;;;;10.63;100.00;101881.66;5219747;28;20503;-82
2021/08/17 04:24:44;;;;;;;136.85;28.80;;;;;;;10.62;100.00;101888.03;5213227;28;20063;-82
2021/08/17 04:27:15;;;;;;;145.82;28.10;;;;;;;10.65;100.00;101889.59;5223283;28;20101;-81
2021/08/17 04:29:45;;;;;;;144.48;30.20;;;;;;;10.66;100.00;101889.44;5223111;28;20059;-82
2021/08/17 04:32:17;;;;;;;133.27;29.48;;;;;;;10.68;100.00;101891.97;5222960;28;20465;-80
2021/08/17 04:34:47;;;;;;;131.23;27.13;;;;;;;10.67;100.00;101885.75;5223744;28;20029;-82
2021/08/17 04:37:18;;;;;;;132.68;30.23;;;;;;;10.68;100.00;101886.59;5222529;28;20021;-81
2021/08/17 04:39:48;;;;;;;144.73;29.00;;;;;;;10.66;100.00;101885.91;5204519;28;20017;-81
2021/08/17 04:42:19;;;;;;;150.55;29.40;;;;;;;10.68;100.00;101895.50;5222480;28;20079;-82
2021/08/17 04:44:49;;;;;;;143.50;29.02;;;;;;;10.73;100.00;101895.06;5226855;28;20406;-82
2021/08/17 04:47:20;;;;;;;147.32;30.05;;;;;;;10.74;100.00;101886.88;5226743;28;20373;-82
2021/08/17 04:49:50;;;;;;;133.68;28.92;;;;;;;10.74;100.00;101884.19;5225966;28;20021;-82
2021/08/17 04:52:21;;;;;;;131.63;27.55;;;;;;;10.76;100.00;101889.44;5226434;28;20048;-81
2021/08/17 04:54:51;;;;;;;133.68;27.98;;;;;;;10.79;100.00;101892.69;5226253;28;20108;-82
2021/08/17 04:57:22;;;;;;;146.93;29.25;;;;;;;10.79;100.00;101899.88;5226634;28;20075;-80
2021/08/17 04:59:52;;;;;;;140.98;27.20;;;;;;;10.88;100.00;101899.03;5226055;28;20079;-82
2021/08/17 05:02:23;;;;;;;134.45;28.30;;;;;;;10.85;100.00;101908.22;5225728;28;20033;-82
2021/08/17 05:04:53;;;;;;;121.35;25.85;;;;;;;10.85;100.00;101910.91;5223231;28;20032;-82
2021/08/17 05:07:24;;;;;;;142.15;28.70;;;;;;;10.87;100.00;101913.44;5226226;28;20029;-82
2021/08/17 05:09:54;;;;;;;128.73;27.75;;;;;;;10.92;100.00;101919.22;5225820;28;20119;-82
2021/08/17 05:12:24;;;;;;;115.10;27.15;;;;;;;11.03;100.00;101920.91;5223450;28;20025;-81
2021/08/17 05:14:55;;;;;;;126.57;27.52;;;;;;;11.06;100.00;101926.84;5213941;28;20040;-81
2021/08/17 05:17:25;;;;;;;129.27;27.02;;;;;;;11.18;100.00;101930.22;5211932;28;20017;-82
2021/08/17 05:19:56;;;;;;;124.07;27.13;;;;;;;11.25;100.00;101931.34;5225595;28;20517;-81
2021/08/17 05:22:26;;;;;;;114.50;26.13;;;;;;;11.38;100.00;101928.34;5212164;28;20088;-82
2021/08/17 05:24:57;;;;;;;123.57;26.10;;;;;;;11.45;100.00;101934.00;5232191;28;20462;-81
2021/08/17 05:27:27;;;;;;;123.70;28.38;;;;;;;11.50;100.00;101926.34;5230910;28;20112;-82
2021/08/17 05:29:58;;;;;;;125.22;25.60;;;;;;;11.50;100.00;101920.97;5214070;28;20060;-81
2021/08/17 05:32:28;;;;;;;102.90;25.63;;;;;;;11.50;100.00;101919.13;5232684;28;20082;-82
2021/08/17 05:34:59;;;;;;;98.97;24.02;;;;;;;11.48;100.00;101925.63;5231217;28;20047;-80
2021/08/17 05:37:29;;;;;;;112.00;25.10;;;;;;;11.52;100.00;101933.25;5231765;28;20032;-81
2021/08/17 05:40:00;;;;;;;99.95;25.38;;;;;;;11.55;100.00;101938.34;5220058;28;20037;-81
2021/08/17 05:42:30;;;;;;;91.68;24.00;;;;;;;11.68;100.00;101930.78;5231213;28;20070;-83
2021/08/17 05:45:02;;;;;;;108.85;24.80;;;;;;;11.78;100.00;101927.22;5232175;28;20024;-83
2021/08/17 05:47:32;;;;;;;86.43;22.50;;;;;;;11.77;100.00;101923.69;5231673;28;20060;-80
2021/08/17 05:50:03;;;;;;;93.40;24.33;;;;;;;11.85;100.00;101931.06;5216519;28;20021;-79
2021/08/17 05:52:37;;;;;;;86.65;22.23;;;;;;;11.88;100.00;101925.38;5231018;28;20031;-80
2021/08/17 05:55:09;;;;;;;98.22;23.15;;;;;;;11.81;100.00;101922.41;5231444;28;20079;-80
2021/08/17 05:57:40;;;;;;;83.63;22.30;;;;;;;11.83;100.00;101923.13;5232092;28;20107;-80
2021/08/17 06:00:13;;;;;;;85.80;22.88;;;;;;;11.85;100.00;101931.06;5223153;28;20053;-78
2021/08/17 06:02:43;;;;;;;95.75;23.60;;;;;;;11.93;100.00;101928.47;5225464;28;20037;-81
2021/08/17 06:05:14;;;;;;;89.57;23.30;;;;;;;11.95;100.00;101926.50;5233416;28;20021;-78
2021/08/17 06:07:46;;;;;;;87.18;22.58;;;;;;;12.01;100.00;101919.66;5231371;28;20033;-81
2021/08/17 06:10:17;;;;;;;76.93;22.33;;;;;;;12.01;100.00;101923.19;5231867;28;20469;-82
2021/08/17 06:12:48;;;;;;;77.80;22.90;;;;;;;12.09;100.00;101923.28;5231697;28;20032;-83
2021/08/17 06:15:18;;;;;;;88.40;23.65;;;;;;;12.16;100.00;101913.63;5212815;28;20040;-82
2021/08/17 06:17:49;;;;;;;84.22;21.77;;;;;;;12.23;100.00;101918.41;5215913;28;20036;-82
2021/08/17 06:20:19;;;;;;;70.63;21.95;;;;;;;12.38;100.00;101912.34;5229630;28;20025;-80
2021/08/17 06:22:49;;;;;;;82.90;21.75;;;;;;;12.58;100.00;101923.81;5220802;28;20044;-80
2021/08/17 06:25:20;;;;;;;75.15;21.75;;;;;;;12.84;100.00;101928.44;5223992;28;20028;-80
2021/08/17 06:27:51;;;;;;;72.72;20.88;;;;;;;13.05;100.00;101937.06;5228679;28;20048;-80
2021/08/17 06:30:22;;;;;;;68.70;20.63;;;;;;;13.13;100.00;101938.94;5229577;28;20024;-82
2021/08/17 06:32:54;;;;;;;68.43;20.17;;;;;;;13.29;100.00;101949.03;5231068;28;20025;-81
2021/08/17 06:35:24;;;;;;;69.03;20.73;;;;;;;13.28;100.00;101939.25;5215555;28;20044;-80
2021/08/17 06:37:55;;;;;;;64.57;20.15;;;;;;;13.34;100.00;101930.53;5230291;28;20443;-80
2021/08/17 06:40:26;;;;;;;61.38;20.05;;;;;;;13.18;100.00;101915.91;5222037;28;20036;-81
2021/08/17 06:42:56;;;;;;;63.85;18.55;;;;;;;13.20;100.00;101897.75;5229459;28;20064;-80
2021/08/17 06:45:27;;;;;;;62.63;19.92;;;;;;;13.12;100.00;101886.91;5229559;28;20033;-82
2021/08/17 06:47:58;;;;;;;62.15;18.58;;;;;;;13.07;100.00;101886.53;5230152;28;20025;-80
2021/08/17 06:50:28;;;;;;;73.82;19.50;;;;;;;13.13;100.00;101882.38;5229868;28;20059;-81
2021/08/17 06:52:59;;;;;;;68.25;18.85;;;;;;;13.07;100.00;101878.47;5230715;28;20029;-80
2021/08/17 06:55:29;;;;;;;58.00;18.20;;;;;;;13.10;100.00;101875.47;5230002;28;20025;-81
2021/08/17 06:58:00;;;;;;;58.97;20.13;;;;;;;13.14;100.00;101876.81;5216601;28;20060;-81
2021/08/17 07:00:30;;;;;;;54.45;17.40;;;;;;;13.23;100.00;101880.44;5217894;28;20445;-81
2021/08/17 07:03:01;;;;;;;56.03;18.05;;;;;;;13.35;100.00;101875.63;5205584;28;20089;-81
2021/08/17 07:05:31;;;;;;;48.92;17.15;;;;;;;13.62;100.00;101888.09;5229763;28;20028;-80
2021/08/17 07:08:03;;;;;;;49.35;16.60;;;;;;;13.66;100.00;101897.56;5229558;28;20032;-81
2021/08/17 07:10:35;;;;;;;51.05;17.38;;;;;;;13.85;100.00;101886.50;5236202;28;20040;-79
2021/08/17 07:13:06;;;;;;;55.13;17.63;;;;;;;14.23;100.00;101906.72;5228613;28;20031;-80
2021/08/17 07:15:37;;;;;;;44.80;16.17;;;;;;;14.60;100.00;101918.13;5229052;28;20045;-81
2021/08/17 07:18:08;;;;;;;46.85;17.42;;;;;;;15.02;100.00;101920.69;5229861;28;20072;-79
2021/08/17 07:20:39;;;;;;;45.08;15.30;;;;;;;15.16;100.00;101920.00;5225861;28;20028;-81
2021/08/17 07:23:10;;;;;;;42.45;14.77;;;;;;;15.18;100.00;101917.97;5220545;28;20042;-80
2021/08/17 07:25:41;;;;;;;40.75;16.33;;;;;;;14.98;100.00;101927.44;5223918;28;20014;-81
2021/08/17 07:28:12;;;;;;;40.78;14.07;;;;;;;15.17;100.00;101927.09;5222297;28;20048;-81
2021/08/17 07:30:42;;;;;;;35.42;13.43;;;;;;;15.08;100.00;101930.81;5229782;28;20021;-82
2021/08/17 07:33:13;;;;;;;36.75;15.15;;;;;;;15.04;100.00;101921.34;5230778;28;20514;-82
2021/08/17 07:35:43;;;;;;;41.22;14.35;;;;;;;15.18;100.00;101912.56;5231005;28;20061;-82
2021/08/17 07:38:14;;;;;;;41.35;14.35;;;;;;;15.23;100.00;101921.00;5229363;28;20506;-81
2021/08/17 07:40:45;;;;;;;35.17;12.60;;;;;;;15.18;100.00;101917.97;5225598;28;20051;-83
2021/08/17 07:43:15;;;;;;;35.85;13.40;;;;;;;15.18;100.00;101915.25;5228410;28;20502;-81
2021/08/17 07:45:46;;;;;;;33.08;12.68;;;;;;;15.18;100.00;101917.97;5229740;28;20040;-79
2021/08/17 07:48:16;;;;;;;36.53;11.90;;;;;;;15.31;100.00;101924.69;5227767;28;20033;-81
2021/08/17 07:50:47;;;;;;;41.17;12.88;;;;;;;15.42;100.00;101925.22;5229364;28;20041;-82
2021/08/17 07:53:17;;;;;;;28.17;11.35;;;;;;;15.57;100.00;101916.38;5228821;28;20065;-81
2021/08/17 07:55:47;;;;;;;29.23;11.38;;;;;;;15.58;100.00;101924.31;5229162;28;20183;-82
2021/08/17 07:58:18;;;;;;;30.67;12.02;;;;;;;15.48;100.00;101929.09;5228858;28;20445;-82
2021/08/17 08:00:49;;;;;;;31.63;11.75;;;;;;;15.58;100.00;101932.44;5214571;28;20116;-82
2021/08/17 08:03:20;;;;;;;30.92;12.63;;;;;;;15.51;100.00;101924.19;5227427;28;20017;-80
2021/08/17 08:05:50;;;;;;;30.42;11.57;;;;;;;15.62;100.00;101924.81;5227844;28;20028;-80
2021/08/17 08:08:21;;;;;;;30.50;12.13;;;;;;;15.66;100.00;101921.63;5226903;28;20056;-80
2021/08/17 08:10:52;;;;;;;34.20;12.45;;;;;;;15.70;100.00;101917.53;5225700;28;20021;-80
2021/08/17 08:13:22;;;;;;;41.53;11.65;;;;;;;15.63;100.00;101921.09;5226217;28;20036;-80
2021/08/17 08:15:53;;;;;;;33.53;12.52;;;;;;;15.84;100.00;101917.84;5223781;28;20040;-79
2021/08/17 08:18:23;;;;;;;37.00;11.27;;;;;;;15.93;100.00;101911.41;5222574;28;20023;-81
2021/08/17 08:20:54;;;;;;;31.90;11.48;;;;;;;15.90;100.00;101907.16;5222068;28;20032;-82
2021/08/17 08:23:24;;;;;;;31.63;12.73;;;;;;;15.93;100.00;101908.69;5222478;28;20017;-80
2021/08/17 08:25:55;;;;;;;27.55;11.85;;;;;;;15.95;100.00;101906.63;5222632;28;20033;-81
2021/08/17 08:28:25;;;;;;;31.67;11.57;;;;;;;15.82;100.00;101915.31;5222161;28;20483;-79
2021/08/17 08:30:56;;;;;;;35.17;11.20;;;;;;;15.71;100.00;101900.31;5221820;28;20036;-82
2021/08/17 08:33:26;;;;;;;32.70;12.40;;;;;;;15.64;100.00;101893.91;5222043;28;20036;-82
2021/08/17 08:35:56;;;;;;;42.80;11.68;;;;;;;15.65;100.00;101898.28;5222056;28;20033;-80
2021/08/17 08:38:27;;;;;;;33.85;11.52;;;;;;;15.63;100.00;101894.06;5226429;28;20103;-81
2021/08/17 08:40:57;;;;;;;30.55;11.82;;;;;;;15.68;100.00;101900.66;5225522;28;20017;-81
2021/08/17 08:43:28;;;;;;;37.22;11.75;;;;;;;15.52;100.00;101903.38;5226370;28;20033;-82
2021/08/17 08:45:59;;;;;;;31.13;11.77;;;;;;;15.52;100.00;101903.38;5227465;28;20155;-82
2021/08/17 08:48:29;;;;;;;28.13;11.68;;;;;;;15.57;100.00;101900.16;5228144;28;20111;-82
2021/08/17 08:51:00;;;;;;;30.77;10.90;;;;;;;15.74;100.00;101899.13;5227388;28;20479;-81
2021/08/17 08:53:30;;;;;;;30.45;11.00;;;;;;;15.66;100.00;101904.53;5219620;28;20026;-81
2021/08/17 08:56:00;;;;;;;34.25;12.18;;;;;;;15.50;100.00;101905.41;5221930;28;20021;-81
2021/08/17 08:58:31;;;;;;;30.25;12.07;;;;;;;15.67;100.00;101898.13;5227091;28;20029;-80
2021/08/17 09:01:02;;;;;;;33.75;11.95;;;;;;;15.50;100.00;101886.47;5210571;28;20518;-81
2021/08/17 09:03:43;;;;;;;32.00;11.98;;;;;;;15.60;100.00;101889.81;5214767;28;20027;-81
2021/08/17 09:06:19;;;;;;;30.25;11.82;;;;;;;15.56;100.00;101893.88;5227092;28;20020;-81
2021/08/17 09:09:03;;;;;;;34.90;12.10;;;;;;;15.54;100.00;101898.63;5226633;28;20430;-80
2021/08/17 09:11:34;;;;;;;26.55;11.68;;;;;;;15.61;100.00;101902.31;5228019;28;20298;-81
2021/08/17 09:14:19;;;;;;;28.48;10.82;;;;;;;15.54;100.00;101901.34;5222956;28;20026;-82
2021/08/17 09:16:53;;;;;;;28.58;10.20;;;;;;;15.63;100.00;101902.16;5220873;28;20111;-82
2021/08/17 09:19:40;;;;;;;29.50;10.98;;;;;;;15.80;100.00;101911.94;5214240;28;20132;-79
2021/08/17 09:22:19;;;;;;;27.23;10.68;;;;;;;15.82;100.00;101915.31;5228347;28;20289;-81
2021/08/17 09:24:52;;;;;;;30.65;10.45;;;;;;;15.81;100.00;101921.72;5226692;28;20036;-82
2021/08/17 09:27:26;;;;;;;25.17;10.65;;;;;;;16.04;100.00;101917.25;5225467;28;20029;-82
2021/08/17 09:30:04;;;;;;;29.57;10.33;;;;;;;16.05;100.00;101916.22;5224054;28;20036;-79
2021/08/17 09:32:49;;;;;;;19.80;8.73;;;;;;;16.13;100.00;101928.88;5231263;28;20268;-82
2021/08/17 09:35:22;;;;;;;29.00;9.23;;;;;;;16.12;100.00;101929.91;5231308;28;20265;-82
2021/08/17 09:38:06;;;;;;;26.55;9.90;;;;;;;16.16;100.00;101928.53;5231776;28;20382;-80
2021/08/17 09:40:38;;;;;;;23.60;9.05;;;;;;;16.21;100.00;101915.28;5224272;28;20033;-80
2021/08/17 09:43:16;;;;;;;19.52;8.65;;;;;;;16.33;100.00;101933.88;5230976;28;20028;-81
2021/08/17 09:45:48;;;;;;;22.13;8.73;;;;;;;16.32;100.00;101943.88;5230427;28;20128;-82
2021/08/17 09:48:28;;;;;;;19.35;8.25;;;;;;;16.65;100.00;101938.22;5230838;28;20029;-82
2021/08/17 09:50:59;;;;;;;20.38;8.27;;;;;;;16.60;100.00;101937.94;5230542;28;20033;-82
2021/08/17 09:53:29;;;;;;;20.13;8.60;;;;;;;16.65;100.00;101939.06;5231040;28;20024;-81
2021/08/17 09:56:00;;;;;;;22.80;8.70;;;;;;;16.99;100.00;101935.13;5229688;28;20060;-82
2021/08/17 09:58:34;;;;;;;22.02;8.55;;;;;;;17.33;100.00;101935.50;5230312;28;20028;-82
2021/08/17 10:01:07;;;;;;;19.17;8.10;;;;;;;17.34;100.00;101928.22;5230856;28;20418;-78
2021/08/17 10:03:37;;;;;;;15.57;8.38;;;;;;;16.80;100.00;101910.19;5231157;28;20028;-81
2021/08/17 10:06:08;;;;;;;20.17;8.32;;;;;;;16.29;100.00;101911.72;5230433;28;20395;-80
2021/08/17 10:08:39;;;;;;;22.85;9.15;;;;;;;16.21;100.00;101915.28;5230772;28;20017;-80
2021/08/17 10:11:10;;;;;;;20.52;7.72;;;;;;;16.05;100.00;101912.69;5230304;28;20068;-81
2021/08/17 10:13:41;;;;;;;18.60;8.45;;;;;;;16.15;100.00;101921.41;5231817;28;20027;-83
2021/08/17 10:16:16;;;;;;;14.65;6.85;;;;;;;16.18;100.00;101899.41;5224984;28;20104;-80
2021/08/17 10:18:47;;;;;;;;;;;;;;;16.37;100.00;101911.69;5226889;28;20043;-81
2021/08/17 10:21:19;;;;;;;19.52;7.88;;;;;;;16.26;100.00;101906.63;5214343;28;20332;-81
2021/08/17 10:23:49;;;;;;;14.65;7.15;;;;;;;16.30;100.00;101903.41;5229979;28;20043;-81
2021/08/17 10:26:30;;;;;;;25.25;6.80;;;;;;;16.00;100.00;101902.38;5229186;28;20028;-84
2021/08/17 10:29:26;;;;;;;17.98;6.70;;;;;;;15.84;100.00;101897.03;5230119;28;20036;-81
2021/08/17 10:31:56;;;;;;;16.02;6.45;;;;;;;15.92;100.00;101896.19;5230769;28;20039;-80
2021/08/17 10:34:36;;;;;;;14.85;6.28;;;;;;;15.76;100.00;101891.66;5230647;28;20036;-82
2021/08/17 10:37:21;;;;;;;12.73;5.88;;;;;;;15.56;100.00;101902.00;5230149;28;20056;-83
2021/08/17 10:39:51;;;;;;;15.70;6.20;;;;;;;15.46;100.00;101896.81;5228342;28;20119;-83
2021/08/17 10:42:25;;;;;;;15.45;6.13;;;;;;;15.32;100.00;101896.66;5226457;28;20314;-82
2021/08/17 10:45:26;;;;;;;20.67;6.97;;;;;;;15.19;100.00;101887.22;5230871;28;20025;-82
2021/08/17 10:47:56;;;;;;;16.52;7.43;;;;;;;15.01;100.00;101883.88;5229119;28;20036;-82
2021/08/17 10:50:32;;;;;;;14.40;5.97;;;;;;;14.94;100.00;101889.09;5229207;28;20128;-80
2021/08/17 10:53:35;;;;;;;13.82;6.93;;;;;;;15.01;100.00;101881.19;5230113;28;20023;-82
2021/08/17 10:56:12;;;;;;;15.40;6.45;;;;;;;15.15;100.00;101880.47;5229863;28;20037;-82
2021/08/17 10:58:48;;;;;;;19.50;7.18;;;;;;;15.28;100.00;101898.88;5229338;28;20039;-81
2021/08/17 11:01:35;;;;;;;20.20;5.97;;;;;;;15.23;100.00;101893.97;5223831;28;20017;-82
2021/08/17 11:04:09;;;;;;;13.20;6.05;;;;;;;15.25;100.00;101897.34;5220923;28;20025;-82
2021/08/17 11:06:47;;;;;;;14.68;6.40;;;;;;;15.15;100.00;101893.97;5224468;28;20028;-80
2021/08/17 11:09:28;;;;;;;12.05;5.10;;;;;;;14.99;100.00;101894.00;5223927;28;20033;-82
2021/08/17 11:12:07;;;;;;;10.98;5.75;;;;;;;14.90;100.00;101890.44;5224234;28;20039;-83
2021/08/17 11:14:40;;;;;;;13.88;5.88;;;;;;;14.83;100.00;101894.84;5203306;28;20065;-84
2021/08/17 11:17:13;;;;;;;15.98;5.95;;;;;;;14.77;100.00;101892.81;5218198;28;20069;-84
2021/08/17 11:19:48;;;;;;;16.75;6.57;;;;;;;14.78;100.00;101897.22;5223539;28;20041;-83
2021/08/17 11:22:24;;;;;;;13.70;5.22;;;;;;;14.64;100.00;101890.59;5223503;28;20109;-83